• Join FlightAware (Why Join?)
  • Login
  • US Flag 
04:16PM EDT


 

Airport Tracker/Info


-or-


 

Live Flight TrackerFlight Track Log ✈ UAL4530 ✈ 29-Apr-2013 ✈ KEWR - KMCI

Flight Track Log - Related Links

Times and Time Zones

All times are in EDT time to prevent confusion due to time zone crossing. See the UAL4530 flight status page for this flight to view local times or setup timezone preferences in your user account.

Time Position Orientation Groundspeed Altitude Reporting Facility
EDT Latitude Longitude Course Direction KTS MPH feet Rate Location/Type
12:56PM 40.6500 -74.1833 294° West 180 207 2,000  Level New York TRACON
12:57PM 40.6333 -74.2667 255° West 260 299 3,900 960 Climbing New York TRACON
12:58PM 40.6500 -74.3667 282° West 281 323 4,000 900 Climbing New York TRACON
12:59PM 40.7491 -74.6897 277° West  Level FlightAware Approximate
12:59PM 40.7000 -74.4333 315° West 306 352 5,700  Level New York TRACON
01:00PM 40.7597 -74.8254 276° West  Level FlightAware Approximate
01:00PM 40.7500 -74.5000 315° West 284 327 8,600  Level New York TRACON
01:01PM 40.7803 -74.9576 294° West  Level FlightAware Approximate
01:01PM 40.7667 -74.6000 282° West 294 338 10,300  Level New York TRACON
01:01PM 40.7642 -74.6589 267° West 314 361 10,500 1,680 Climbing New York Center
01:02PM 40.7750 -74.7772 277° West 348 400 12,800 2,040 Climbing New York Center
01:03PM 40.7836 -74.8847 276° West 351 404 14,700 1,380 Climbing New York Center
01:04PM 40.7956 -75.0225 277° West 346 398 15,700 1,080 Climbing New York Center
01:05PM 40.7969 -75.1542 271° West 357 411 16,900 1,080 Climbing New York Center
01:06PM 40.7592 -75.2750 242° Southwest 357 411 17,900 1,020 Climbing New York Center
01:07PM 40.7295 -75.2764 242° Southwest  Level FlightAware Approximate
01:07PM 40.7186 -75.4011 247° West 373 429 19,000  Level New York Center
01:08PM 40.6742 -75.5267 245° Southwest 378 435 20,200 1,200 Climbing New York Center
01:09PM 40.6336 -75.6525 247° West 378 435 21,500 1,200 Climbing New York Center
01:10PM 40.5908 -75.7778 246° West 378 435 22,700 1,200 Climbing New York Center
01:11PM 40.5500 -75.9031 247° West 378 435 24,000 1,200 Climbing New York Center
01:12PM 40.5056 -76.0172 243° Southwest 378 435 25,200 1,200 Climbing New York Center
01:13PM 40.4644 -76.1397 246° West 378 435 26,500 1,260 Climbing New York Center
01:14PM 40.4256 -76.2619 247° West 372 428 27,700 1,080 Climbing New York Center
01:15PM 40.3825 -76.3786 244° Southwest 372 428 28,700 960 Climbing New York Center
01:16PM 40.3456 -76.4953 247° West 367 422 29,700 960 Climbing New York Center
01:17PM 40.3147 -76.6153 251° West 359 413 30,700 960 Climbing New York Center
01:18PM 40.2878 -76.7356 254° West 354 407 31,600 900 Climbing New York Center
01:19PM 40.2569 -76.8525 251° West 354 407 32,600 960 Climbing New York Center
01:20PM 40.2236 -76.9719 250° West 354 407 33,600 960 Climbing New York Center
01:21PM 40.1964 -77.0947 254° West 354 407 34,600 960 Climbing New York Center
01:22PM 40.1650 -77.2086 250° West 354 407 35,500 480 Climbing New York Center
01:24PM 40.1442 -77.4217 263° West 327 376 36,000 180 Climbing Cleveland Center
01:25PM 40.1414 -77.5519 268° West 342 394 36,000  Level Cleveland Center
01:26PM 40.1408 -77.6853 270° West 367 422 36,000  Level Cleveland Center
01:27PM 40.1358 -77.8267 267° West 378 435 36,000  Level Cleveland Center
01:28PM 40.1289 -77.9736 267° West 399 459 36,000  Level Cleveland Center
01:29PM 40.1239 -78.1206 267° West 405 466 36,000  Level Cleveland Center
01:30PM 40.1208 -78.2672 268° West 405 466 36,000  Level Cleveland Center
01:31PM 40.1175 -78.4194 268° West 405 466 36,000  Level Cleveland Center
01:32PM 40.1119 -78.5689 267° West 410 472 36,000  Level Cleveland Center
01:33PM 40.1061 -78.7183 267° West 415 478 36,000  Level Cleveland Center
01:34PM 40.1000 -78.8678 267° West 415 478 36,000  Level Cleveland Center
01:35PM 40.0961 -79.0144 268° West 415 478 36,000  Level Cleveland Center
01:36PM 40.0894 -79.1611 267° West 415 478 36,000  Level Cleveland Center
01:37PM 40.0850 -79.3103 268° West 415 478 36,000  Level Cleveland Center
01:38PM 40.0803 -79.4569 268° West 415 478 36,000  Level Cleveland Center
01:39PM 40.0756 -79.6064 268° West 415 478 36,000  Level Cleveland Center
01:40PM 40.0703 -79.7531 267° West 415 478 36,000  Level Cleveland Center
01:41PM 40.0631 -79.8994 266° West 410 472 36,000  Level Cleveland Center
01:42PM 40.0658 -80.0458 271° West 410 472 36,000  Level Cleveland Center
01:43PM 40.0644 -80.1978 269° West 405 466 36,000  Level Cleveland Center
01:44PM 40.0689 -80.3497 272° West 416 479 36,000  Level Cleveland Center
01:45PM 40.0733 -80.5017 272° West 421 484 36,000  Level Cleveland Center
01:46PM 40.0756 -80.6536 271° West 421 484 36,000  Level Cleveland Center
01:48PM 40.0764 -80.9731 270° West 428 493 36,000  Level Indianapolis Center
01:49PM 40.0772 -81.1297 270° West 428 493 36,000  Level Indianapolis Center
01:50PM 40.0789 -81.2886 271° West 431 496 36,000  Level Indianapolis Center
01:51PM 40.0803 -81.4481 271° West 433 498 36,000  Level Indianapolis Center
01:52PM 40.0811 -81.6064 270° West 433 498 36,000  Level Indianapolis Center
01:53PM 40.0817 -81.7792 270° West 432 497 36,000 -60 Level Indianapolis Center
01:54PM 40.0828 -81.9364 271° West 430 495 35,900  Descending Indianapolis Center
01:55PM 40.0836 -82.0942 270° West 429 494 36,000  Climbing Indianapolis Center
01:56PM 40.0825 -82.2503 270° West 428 493 36,000  Level Indianapolis Center
01:57PM 40.0831 -82.4067 270° West 429 494 36,000  Level Indianapolis Center
01:58PM 40.0822 -82.5625 270° West 427 491 36,000  Level Indianapolis Center
01:59PM 40.0819 -82.7175 270° West 425 489 36,000  Level Indianapolis Center
02:01PM 40.0811 -82.8981 270° West 425 489 36,000  Level Indianapolis Center
02:02PM 40.0794 -83.0517 269° West 422 486 36,000  Level Indianapolis Center
02:03PM 40.0783 -83.2050 270° West 421 484 36,000  Level Indianapolis Center
02:04PM 40.0775 -83.3583 270° West 423 487 36,000  Level Indianapolis Center
02:05PM 40.0756 -83.5114 269° West 424 488 36,000  Level Indianapolis Center
02:06PM 40.0742 -83.6647 269° West 423 487 36,000  Level Indianapolis Center
02:07PM 40.0708 -83.8436 269° West 423 487 36,000  Level Indianapolis Center
02:08PM 40.0683 -83.9964 269° West 421 484 36,000  Level Indianapolis Center
02:09PM 40.0664 -84.1497 269° West 421 484 36,000  Level Indianapolis Center
02:10PM 40.0628 -84.3028 268° West 419 482 36,000  Level Indianapolis Center
02:11PM 40.0611 -84.4550 269° West 417 480 36,000  Level Indianapolis Center
02:12PM 40.0567 -84.6086 268° West 421 484 36,000  Level Indianapolis Center
02:13PM 40.0536 -84.7603 269° West 417 480 36,000  Level Indianapolis Center
02:14PM 40.0494 -84.9325 268° West 413 475 36,000  Level Indianapolis Center
02:15PM 40.0456 -85.0847 268° West 416 479 36,000  Level Indianapolis Center
02:16PM 40.0456 -85.2367 270° West 416 479 36,000  Level Indianapolis Center
02:17PM 40.0447 -85.3883 270° West 417 480 36,000  Level Indianapolis Center
02:18PM 40.0419 -85.5389 269° West 415 478 36,000  Level Indianapolis Center
02:19PM 40.0400 -85.6894 269° West 414 476 36,000  Level Indianapolis Center
02:20PM 40.0372 -85.8894 269° West 414 476 36,000  Level Indianapolis Center
02:21PM 40.0344 -86.0403 269° West 414 476 36,000  Level Indianapolis Center
02:22PM 40.0325 -86.1642 269° West 415 478 36,000  Level Chicago Center
02:23PM 40.0286 -86.3383 268° West 414 476 36,000  Level Chicago Center
02:24PM 40.0250 -86.5122 269° West 412 474 36,000  Level Indianapolis Center
02:25PM 40.0217 -86.6622 268° West 414 476 36,000  Level Indianapolis Center
02:26PM 40.0183 -86.8131 268° West 416 479 36,000  Level Indianapolis Center
02:28PM 40.0142 -86.9631 268° West 414 476 36,000  Level Indianapolis Center
02:29PM 40.0106 -87.1147 268° West 415 478 36,000  Level Indianapolis Center
02:30PM 40.0069 -87.2656 268° West 415 478 36,000  Level Indianapolis Center
02:31PM 40.0019 -87.4167 268° West 416 479 36,000  Level Indianapolis Center
02:32PM 39.9961 -87.5931 268° West 413 475 36,000  Level Indianapolis Center
02:33PM 39.9925 -87.7442 268° West 415 478 36,000  Level Indianapolis Center
02:34PM 39.9867 -87.8925 267° West 410 472 36,000  Level Indianapolis Center
02:35PM 39.9825 -88.0181 268° West 413 475 36,000  Level Chicago Center
02:36PM 39.9786 -88.1714 268° West 411 473 36,000  Level Chicago Center
02:37PM 39.9717 -88.3194 267° West 409 471 36,000  Level Chicago Center
02:38PM 39.9667 -88.4678 268° West 410 472 36,000  Level Chicago Center
02:39PM 39.9600 -88.6472 267° West 416 479 36,000  Level Chicago Center
02:40PM 39.9539 -88.7953 267° West 410 472 36,000  Level Chicago Center
02:41PM 39.9469 -88.9453 267° West 412 474 36,000  Level Kansas City Center
02:42PM 39.9392 -89.1239 267° West 411 473 36,000  Level Kansas City Center
02:43PM 39.9322 -89.2731 267° West 412 474 36,000  Level Kansas City Center
02:44PM 39.9253 -89.4225 267° West 412 474 36,000  Level Kansas City Center
02:45PM 39.9175 -89.5692 266° West 407 468 36,000  Level Kansas City Center
02:46PM 39.9103 -89.7192 266° West 412 474 36,000  Level Kansas City Center
02:47PM 39.9031 -89.8692 266° West 413 475 36,000  Level Kansas City Center
02:48PM 39.8958 -90.0186 266° West 412 474 36,000  Level Kansas City Center
02:49PM 39.8861 -90.1986 266° West 413 475 36,000  Level Kansas City Center
02:50PM 39.8783 -90.3483 266° West 415 478 36,000  Level Kansas City Center
02:51PM 39.8703 -90.4992 266° West 415 478 36,000  Level Kansas City Center
02:52PM 39.8617 -90.6467 266° West 411 473 36,000  Level Kansas City Center
02:53PM 39.8533 -90.7900 266° West 403 464 36,000  Level Kansas City Center
02:54PM 39.8453 -90.9336 266° West 399 459 36,000  Level Kansas City Center
02:55PM 39.8350 -91.0900 265° West 404 465 36,000  Level Kansas City Center
02:56PM 39.8267 -91.2367 266° West 407 468 36,000  Level Kansas City Center
02:57PM 39.8150 -91.3847 264° West 412 474 36,000  Level Kansas City Center
02:58PM 39.8044 -91.5617 266° West 413 475 36,000  Level Kansas City Center
03:00PM 39.7950 -91.7094 265° West 413 475 36,000  Level Kansas City Center
03:01PM 39.7856 -91.8553 265° West 410 472 36,000  Level Kansas City Center
03:02PM 39.7764 -92.0025 265° West 410 472 36,000 -480 Level Kansas City Center
03:03PM 39.7664 -92.1492 265° West 410 472 35,100 -960 Descending Kansas City Center
03:04PM 39.7556 -92.2928 264° West 404 465 34,100 -1,080 Descending Kansas City Center
03:05PM 39.7431 -92.4603 265° West 395 455 33,000 -1,020 Descending Kansas City Center
03:06PM 39.7339 -92.5989 265° West 389 448 32,100 -600 Descending Kansas City Center
03:07PM 39.7233 -92.7381 264° West 389 448 31,800 -1,380 Descending Kansas City Center
03:08PM 39.7114 -92.8781 264° West 389 448 29,300 -2,580 Descending Kansas City Center
03:09PM 39.7003 -93.0250 264° West 401 461 26,500 -2,580 Descending Kansas City Center
03:10PM 39.6878 -93.1747 264° West 415 478 24,000 -2,580 Descending Kansas City Center
03:11PM 39.6744 -93.3525 264° West 413 475 21,200 -2,700 Descending Kansas City Center
03:12PM 39.6625 -93.4919 264° West 400 460 18,500 -2,520 Descending Kansas City Center
03:13PM 39.6519 -93.6250 264° West 379 436 16,100 -2,280 Descending Kansas City Center
03:14PM 39.6403 -93.7656 264° West 362 417 13,900 -2,040 Descending Kansas City Center
03:15PM 39.6269 -93.8858 262° West 355 409 12,000 -1,800 Descending Kansas City Center
03:16PM 39.5719 -93.9917 236° Southwest 309 356 10,300 -1,500 Descending Kansas City Center
03:17PM 39.5350 -94.0681 238° Southwest 264 304 8,900 -1,620 Descending Kansas City Center
03:18PM 39.5233 -94.1703 262° West 256 295 7,000 -960 Descending Kansas City Center
03:19PM 39.5133 -94.2544 261° West 249 287 7,000 -300 Level Kansas City Center
03:20PM 39.4961 -94.3378 255° West 253 291 6,500 -540 Descending Kansas City Center
03:21PM 39.4708 -94.4333 251° West 251 289 6,000 -660 Descending Kansas City Center
03:22PM 39.4503 -94.5128 251° West 245 282 5,200 -960 Descending Kansas City Center
03:23PM 39.4256 -94.6092 252° West 252 290 4,100 -1,020 Descending Kansas City Center
03:24PM 39.4061 -94.6844 252° West 226 260 3,200 -1,080 Descending Kansas City Center
03:25PM 39.3614 -94.7094 203° Southwest 155 178 1,900 -1,020 Descending Kansas City Center
03:26PM 39.3272 -94.7197 193° South 132 152 1,200 -720 Descending Kansas City Center
03:28PM 39.2976 -94.7139 270° West  Level Estimated
03:35PM 39.2976 -94.7139 270° West  Level Estimated